sensor_id;sensor_type;location;lat;lon;timestamp;pressure;altitude;pressure_sealevel;temperature
34807;BMP180;18310;55.586;12.286;2022-10-14T00:01:21;101385.00;;;21.80
34807;BMP180;18310;55.586;12.286;2022-10-14T00:04:25;101380.00;;;21.80
34807;BMP180;18310;55.586;12.286;2022-10-14T00:07:28;101376.00;;;21.90
34807;BMP180;18310;55.586;12.286;2022-10-14T00:10:31;101381.00;;;21.80
34807;BMP180;18310;55.586;12.286;2022-10-14T00:13:35;101372.00;;;21.80
34807;BMP180;18310;55.586;12.286;2022-10-14T00:16:40;101372.00;;;21.80
34807;BMP180;18310;55.586;12.286;2022-10-14T00:19:45;101366.00;;;21.80
34807;BMP180;18310;55.586;12.286;2022-10-14T00:22:48;101365.00;;;21.80
34807;BMP180;18310;55.586;12.286;2022-10-14T00:25:51;101366.00;;;21.70
34807;BMP180;18310;55.586;12.286;2022-10-14T00:28:55;101368.00;;;21.60
34807;BMP180;18310;55.586;12.286;2022-10-14T00:31:58;101361.00;;;21.50
34807;BMP180;18310;55.586;12.286;2022-10-14T00:35:05;101359.00;;;21.40
34807;BMP180;18310;55.586;12.286;2022-10-14T00:38:08;101360.00;;;21.30
34807;BMP180;18310;55.586;12.286;2022-10-14T00:41:13;101368.00;;;21.20
34807;BMP180;18310;55.586;12.286;2022-10-14T00:45:11;101362.00;;;21.10
34807;BMP180;18310;55.586;12.286;2022-10-14T00:48:17;101364.00;;;21.00
34807;BMP180;18310;55.586;12.286;2022-10-14T00:51:22;101357.00;;;20.90
34807;BMP180;18310;55.586;12.286;2022-10-14T00:54:32;101359.00;;;20.80
34807;BMP180;18310;55.586;12.286;2022-10-14T00:57:37;101363.00;;;20.70
34807;BMP180;18310;55.586;12.286;2022-10-14T01:00:42;101368.00;;;20.70
34807;BMP180;18310;55.586;12.286;2022-10-14T01:03:45;101359.00;;;20.60
34807;BMP180;18310;55.586;12.286;2022-10-14T01:07:02;101357.00;;;20.60
34807;BMP180;18310;55.586;12.286;2022-10-14T01:10:19;101355.00;;;20.50
34807;BMP180;18310;55.586;12.286;2022-10-14T01:13:32;101347.00;;;20.50
34807;BMP180;18310;55.586;12.286;2022-10-14T01:16:48;101351.00;;;20.40
34807;BMP180;18310;55.586;12.286;2022-10-14T01:20:21;101340.00;;;20.30
34807;BMP180;18310;55.586;12.286;2022-10-14T01:23:47;101346.00;;;20.30
34807;BMP180;18310;55.586;12.286;2022-10-14T01:27:27;101338.00;;;20.20
34807;BMP180;18310;55.586;12.286;2022-10-14T01:30:45;101337.00;;;20.20
34807;BMP180;18310;55.586;12.286;2022-10-14T01:33:57;101333.00;;;20.20
34807;BMP180;18310;55.586;12.286;2022-10-14T01:37:08;101337.00;;;20.10
34807;BMP180;18310;55.586;12.286;2022-10-14T01:40:23;101333.00;;;20.10
34807;BMP180;18310;55.586;12.286;2022-10-14T01:43:31;101340.00;;;20.10
34807;BMP180;18310;55.586;12.286;2022-10-14T01:46:44;101328.00;;;20.10
34807;BMP180;18310;55.586;12.286;2022-10-14T01:49:55;101328.00;;;20.00
34807;BMP180;18310;55.586;12.286;2022-10-14T01:53:04;101333.00;;;20.00
34807;BMP180;18310;55.586;12.286;2022-10-14T01:56:12;101332.00;;;20.00
34807;BMP180;18310;55.586;12.286;2022-10-14T01:59:18;101331.00;;;19.90
34807;BMP180;18310;55.586;12.286;2022-10-14T02:02:28;101332.00;;;19.90
34807;BMP180;18310;55.586;12.286;2022-10-14T02:05:36;101332.00;;;19.90
34807;BMP180;18310;55.586;12.286;2022-10-14T02:09:06;101324.00;;;19.90
34807;BMP180;18310;55.586;12.286;2022-10-14T02:12:25;101320.00;;;19.90
34807;BMP180;18310;55.586;12.286;2022-10-14T02:15:40;101324.00;;;19.90
34807;BMP180;18310;55.586;12.286;2022-10-14T02:18:52;101324.00;;;20.00
34807;BMP180;18310;55.586;12.286;2022-10-14T02:22:04;101319.00;;;20.10
34807;BMP180;18310;55.586;12.286;2022-10-14T02:25:16;101317.00;;;20.10
34807;BMP180;18310;55.586;12.286;2022-10-14T02:28:25;101320.00;;;20.20
34807;BMP180;18310;55.586;12.286;2022-10-14T02:31:30;101334.00;;;20.30
34807;BMP180;18310;55.586;12.286;2022-10-14T02:34:39;101331.00;;;20.40
34807;BMP180;18310;55.586;12.286;2022-10-14T02:37:46;101326.00;;;20.40
34807;BMP180;18310;55.586;12.286;2022-10-14T02:40:50;101325.00;;;20.50
34807;BMP180;18310;55.586;12.286;2022-10-14T02:43:53;101322.00;;;20.60
34807;BMP180;18310;55.586;12.286;2022-10-14T02:46:57;101321.00;;;20.70
34807;BMP180;18310;55.586;12.286;2022-10-14T02:50:02;101323.00;;;20.70
34807;BMP180;18310;55.586;12.286;2022-10-14T02:53:06;101329.00;;;20.80
34807;BMP180;18310;55.586;12.286;2022-10-14T02:56:12;101331.00;;;20.90
34807;BMP180;18310;55.586;12.286;2022-10-14T02:59:15;101327.00;;;20.90
34807;BMP180;18310;55.586;12.286;2022-10-14T03:02:19;101327.00;;;20.90
34807;BMP180;18310;55.586;12.286;2022-10-14T03:05:25;101321.00;;;20.90
34807;BMP180;18310;55.586;12.286;2022-10-14T03:08:29;101328.00;;;20.90
34807;BMP180;18310;55.586;12.286;2022-10-14T03:11:32;101329.00;;;21.00
34807;BMP180;18310;55.586;12.286;2022-10-14T03:14:36;101311.00;;;21.00
34807;BMP180;18310;55.586;12.286;2022-10-14T03:17:39;101320.00;;;21.00
34807;BMP180;18310;55.586;12.286;2022-10-14T03:20:45;101329.00;;;21.00
34807;BMP180;18310;55.586;12.286;2022-10-14T03:23:49;101322.00;;;21.00
34807;BMP180;18310;55.586;12.286;2022-10-14T03:26:53;101326.00;;;21.00
34807;BMP180;18310;55.586;12.286;2022-10-14T03:29:57;101330.00;;;21.00
34807;BMP180;18310;55.586;12.286;2022-10-14T03:33:00;101323.00;;;21.00
34807;BMP180;18310;55.586;12.286;2022-10-14T03:36:06;101328.00;;;21.00
34807;BMP180;18310;55.586;12.286;2022-10-14T03:39:10;101321.00;;;20.90
34807;BMP180;18310;55.586;12.286;2022-10-14T03:42:14;101323.00;;;21.00
34807;BMP180;18310;55.586;12.286;2022-10-14T03:45:17;101325.00;;;21.00
34807;BMP180;18310;55.586;12.286;2022-10-14T03:48:21;101324.00;;;21.00
34807;BMP180;18310;55.586;12.286;2022-10-14T03:51:26;101324.00;;;21.00
34807;BMP180;18310;55.586;12.286;2022-10-14T03:54:30;101326.00;;;21.00
34807;BMP180;18310;55.586;12.286;2022-10-14T03:57:35;101332.00;;;21.00
34807;BMP180;18310;55.586;12.286;2022-10-14T04:00:39;101326.00;;;20.90
34807;BMP180;18310;55.586;12.286;2022-10-14T04:03:42;101327.00;;;20.90
34807;BMP180;18310;55.586;12.286;2022-10-14T04:06:48;101327.00;;;20.90
34807;BMP180;18310;55.586;12.286;2022-10-14T04:09:53;101320.00;;;20.90
34807;BMP180;18310;55.586;12.286;2022-10-14T04:12:59;101325.00;;;20.80
34807;BMP180;18310;55.586;12.286;2022-10-14T04:16:03;101316.00;;;20.80
34807;BMP180;18310;55.586;12.286;2022-10-14T04:19:07;101318.00;;;20.80
34807;BMP180;18310;55.586;12.286;2022-10-14T04:22:12;101316.00;;;20.80
34807;BMP180;18310;55.586;12.286;2022-10-14T04:25:16;101310.00;;;20.80
34807;BMP180;18310;55.586;12.286;2022-10-14T04:28:19;101314.00;;;20.80
34807;BMP180;18310;55.586;12.286;2022-10-14T04:31:24;101308.00;;;20.70
34807;BMP180;18310;55.586;12.286;2022-10-14T04:34:29;101316.00;;;20.70
34807;BMP180;18310;55.586;12.286;2022-10-14T04:37:35;101312.00;;;20.60
34807;BMP180;18310;55.586;12.286;2022-10-14T04:40:37;101307.00;;;20.60
34807;BMP180;18310;55.586;12.286;2022-10-14T04:43:40;101307.00;;;20.50
34807;BMP180;18310;55.586;12.286;2022-10-14T04:46:44;101303.00;;;20.40
34807;BMP180;18310;55.586;12.286;2022-10-14T04:49:47;101306.00;;;20.40
34807;BMP180;18310;55.586;12.286;2022-10-14T04:52:51;101304.00;;;20.30
34807;BMP180;18310;55.586;12.286;2022-10-14T04:55:56;101302.00;;;20.30
34807;BMP180;18310;55.586;12.286;2022-10-14T04:59:00;101298.00;;;20.30
34807;BMP180;18310;55.586;12.286;2022-10-14T05:02:03;101293.00;;;20.20
34807;BMP180;18310;55.586;12.286;2022-10-14T05:05:07;101297.00;;;20.20
34807;BMP180;18310;55.586;12.286;2022-10-14T05:08:12;101302.00;;;20.20
34807;BMP180;18310;55.586;12.286;2022-10-14T05:11:15;101289.00;;;20.20
34807;BMP180;18310;55.586;12.286;2022-10-14T05:14:18;101297.00;;;20.30
34807;BMP180;18310;55.586;12.286;2022-10-14T05:17:22;101299.00;;;20.40
34807;BMP180;18310;55.586;12.286;2022-10-14T05:20:25;101299.00;;;20.50
34807;BMP180;18310;55.586;12.286;2022-10-14T05:23:29;101294.00;;;20.50
34807;BMP180;18310;55.586;12.286;2022-10-14T05:26:32;101294.00;;;20.60
34807;BMP180;18310;55.586;12.286;2022-10-14T05:29:36;101301.00;;;20.70
34807;BMP180;18310;55.586;12.286;2022-10-14T05:32:39;101303.00;;;20.80
34807;BMP180;18310;55.586;12.286;2022-10-14T05:35:44;101297.00;;;20.90
34807;BMP180;18310;55.586;12.286;2022-10-14T05:39:06;101293.00;;;21.00
34807;BMP180;18310;55.586;12.286;2022-10-14T05:42:09;101288.00;;;21.00
34807;BMP180;18310;55.586;12.286;2022-10-14T05:45:13;101293.00;;;21.10
34807;BMP180;18310;55.586;12.286;2022-10-14T05:48:16;101290.00;;;21.20
34807;BMP180;18310;55.586;12.286;2022-10-14T05:51:20;101290.00;;;21.20
34807;BMP180;18310;55.586;12.286;2022-10-14T05:54:25;101294.00;;;21.30
34807;BMP180;18310;55.586;12.286;2022-10-14T05:57:30;101289.00;;;21.30
34807;BMP180;18310;55.586;12.286;2022-10-14T06:00:34;101288.00;;;21.40
34807;BMP180;18310;55.586;12.286;2022-10-14T06:03:37;101300.00;;;21.40
34807;BMP180;18310;55.586;12.286;2022-10-14T06:06:41;101295.00;;;21.40
34807;BMP180;18310;55.586;12.286;2022-10-14T06:09:46;101294.00;;;21.50
34807;BMP180;18310;55.586;12.286;2022-10-14T06:12:49;101288.00;;;21.50
34807;BMP180;18310;55.586;12.286;2022-10-14T06:15:52;101294.00;;;21.50
34807;BMP180;18310;55.586;12.286;2022-10-14T06:18:55;101291.00;;;21.50
34807;BMP180;18310;55.586;12.286;2022-10-14T06:22:00;101284.00;;;21.50
34807;BMP180;18310;55.586;12.286;2022-10-14T06:25:08;101284.00;;;21.50
34807;BMP180;18310;55.586;12.286;2022-10-14T06:28:11;101288.00;;;21.60
34807;BMP180;18310;55.586;12.286;2022-10-14T06:31:16;101283.00;;;21.60
34807;BMP180;18310;55.586;12.286;2022-10-14T06:34:20;101289.00;;;21.60
34807;BMP180;18310;55.586;12.286;2022-10-14T06:37:25;101288.00;;;21.70
34807;BMP180;18310;55.586;12.286;2022-10-14T06:40:31;101284.00;;;21.70
34807;BMP180;18310;55.586;12.286;2022-10-14T06:43:36;101291.00;;;21.70
34807;BMP180;18310;55.586;12.286;2022-10-14T06:46:39;101284.00;;;21.70
34807;BMP180;18310;55.586;12.286;2022-10-14T06:49:42;101290.00;;;21.80
34807;BMP180;18310;55.586;12.286;2022-10-14T06:52:46;101287.00;;;21.80
34807;BMP180;18310;55.586;12.286;2022-10-14T06:56:01;101293.00;;;21.90
34807;BMP180;18310;55.586;12.286;2022-10-14T06:59:04;101294.00;;;22.00
34807;BMP180;18310;55.586;12.286;2022-10-14T07:02:09;101293.00;;;22.00
34807;BMP180;18310;55.586;12.286;2022-10-14T07:05:12;101294.00;;;22.10
34807;BMP180;18310;55.586;12.286;2022-10-14T07:08:16;101293.00;;;22.20
34807;BMP180;18310;55.586;12.286;2022-10-14T07:11:21;101294.00;;;22.20
34807;BMP180;18310;55.586;12.286;2022-10-14T07:14:24;101294.00;;;22.30
34807;BMP180;18310;55.586;12.286;2022-10-14T07:17:29;101297.00;;;22.30
34807;BMP180;18310;55.586;12.286;2022-10-14T07:20:33;101297.00;;;22.30
34807;BMP180;18310;55.586;12.286;2022-10-14T07:23:36;101302.00;;;22.30
34807;BMP180;18310;55.586;12.286;2022-10-14T07:26:41;101302.00;;;22.30
34807;BMP180;18310;55.586;12.286;2022-10-14T07:29:46;101306.00;;;22.30
34807;BMP180;18310;55.586;12.286;2022-10-14T07:32:50;101311.00;;;22.30
34807;BMP180;18310;55.586;12.286;2022-10-14T07:35:54;101313.00;;;22.30
34807;BMP180;18310;55.586;12.286;2022-10-14T07:38:57;101305.00;;;22.30
34807;BMP180;18310;55.586;12.286;2022-10-14T07:42:03;101306.00;;;22.30
34807;BMP180;18310;55.586;12.286;2022-10-14T07:45:09;101312.00;;;22.40
34807;BMP180;18310;55.586;12.286;2022-10-14T07:48:17;101314.00;;;22.40
34807;BMP180;18310;55.586;12.286;2022-10-14T07:51:42;101309.00;;;22.40
34807;BMP180;18310;55.586;12.286;2022-10-14T07:54:46;101308.00;;;22.50
34807;BMP180;18310;55.586;12.286;2022-10-14T07:57:51;101306.00;;;22.60
34807;BMP180;18310;55.586;12.286;2022-10-14T08:00:56;101302.00;;;22.60
34807;BMP180;18310;55.586;12.286;2022-10-14T08:04:00;101311.00;;;22.70
34807;BMP180;18310;55.586;12.286;2022-10-14T08:07:06;101304.00;;;22.80
34807;BMP180;18310;55.586;12.286;2022-10-14T08:10:09;101311.00;;;22.80
34807;BMP180;18310;55.586;12.286;2022-10-14T08:13:13;101309.00;;;23.00
34807;BMP180;18310;55.586;12.286;2022-10-14T08:16:20;101311.00;;;23.10
34807;BMP180;18310;55.586;12.286;2022-10-14T08:19:23;101311.00;;;23.20
34807;BMP180;18310;55.586;12.286;2022-10-14T08:22:28;101313.00;;;23.30
34807;BMP180;18310;55.586;12.286;2022-10-14T08:25:31;101306.00;;;23.30
34807;BMP180;18310;55.586;12.286;2022-10-14T08:28:37;101308.00;;;23.40
34807;BMP180;18310;55.586;12.286;2022-10-14T08:31:40;101311.00;;;23.40
34807;BMP180;18310;55.586;12.286;2022-10-14T08:34:43;101310.00;;;23.50
34807;BMP180;18310;55.586;12.286;2022-10-14T08:37:55;101304.00;;;23.60
34807;BMP180;18310;55.586;12.286;2022-10-14T08:41:12;101306.00;;;23.60
34807;BMP180;18310;55.586;12.286;2022-10-14T08:44:24;101308.00;;;23.70
34807;BMP180;18310;55.586;12.286;2022-10-14T08:47:35;101312.00;;;23.70
34807;BMP180;18310;55.586;12.286;2022-10-14T08:50:46;101304.00;;;23.70
34807;BMP180;18310;55.586;12.286;2022-10-14T08:53:58;101308.00;;;23.70
34807;BMP180;18310;55.586;12.286;2022-10-14T08:57:11;101302.00;;;23.80
34807;BMP180;18310;55.586;12.286;2022-10-14T09:00:19;101303.00;;;23.80
34807;BMP180;18310;55.586;12.286;2022-10-14T09:03:28;101307.00;;;23.90
34807;BMP180;18310;55.586;12.286;2022-10-14T09:06:43;101311.00;;;23.90
34807;BMP180;18310;55.586;12.286;2022-10-14T09:09:50;101312.00;;;23.90
34807;BMP180;18310;55.586;12.286;2022-10-14T09:13:04;101311.00;;;23.90
34807;BMP180;18310;55.586;12.286;2022-10-14T09:16:17;101312.00;;;24.00
34807;BMP180;18310;55.586;12.286;2022-10-14T09:19:29;101312.00;;;24.00
34807;BMP180;18310;55.586;12.286;2022-10-14T09:22:34;101307.00;;;24.10
34807;BMP180;18310;55.586;12.286;2022-10-14T09:25:49;101302.00;;;24.10
34807;BMP180;18310;55.586;12.286;2022-10-14T09:28:55;101307.00;;;24.20
34807;BMP180;18310;55.586;12.286;2022-10-14T09:32:03;101298.00;;;24.30
34807;BMP180;18310;55.586;12.286;2022-10-14T09:35:15;101305.00;;;24.50
34807;BMP180;18310;55.586;12.286;2022-10-14T09:38:22;101296.00;;;24.60
34807;BMP180;18310;55.586;12.286;2022-10-14T09:41:30;101305.00;;;24.80
34807;BMP180;18310;55.586;12.286;2022-10-14T09:44:35;101300.00;;;25.00
34807;BMP180;18310;55.586;12.286;2022-10-14T09:47:49;101298.00;;;25.10
34807;BMP180;18310;55.586;12.286;2022-10-14T09:50:56;101302.00;;;25.20
34807;BMP180;18310;55.586;12.286;2022-10-14T09:54:03;101308.00;;;25.20
34807;BMP180;18310;55.586;12.286;2022-10-14T09:57:16;101308.00;;;25.10
34807;BMP180;18310;55.586;12.286;2022-10-14T10:00:25;101305.00;;;25.00
34807;BMP180;18310;55.586;12.286;2022-10-14T10:03:33;101301.00;;;24.90
34807;BMP180;18310;55.586;12.286;2022-10-14T10:06:52;101307.00;;;24.70
34807;BMP180;18310;55.586;12.286;2022-10-14T10:09:59;101307.00;;;24.60
34807;BMP180;18310;55.586;12.286;2022-10-14T10:13:03;101309.00;;;24.50
34807;BMP180;18310;55.586;12.286;2022-10-14T10:16:22;101305.00;;;24.50
34807;BMP180;18310;55.586;12.286;2022-10-14T10:19:30;101302.00;;;24.60
34807;BMP180;18310;55.586;12.286;2022-10-14T10:22:35;101299.00;;;24.60
34807;BMP180;18310;55.586;12.286;2022-10-14T10:25:39;101296.00;;;24.70
34807;BMP180;18310;55.586;12.286;2022-10-14T10:28:47;101288.00;;;24.70
34807;BMP180;18310;55.586;12.286;2022-10-14T10:32:07;101281.00;;;24.60
34807;BMP180;18310;55.586;12.286;2022-10-14T10:35:27;101289.00;;;24.60
34807;BMP180;18310;55.586;12.286;2022-10-14T10:38:37;101281.00;;;24.60
34807;BMP180;18310;55.586;12.286;2022-10-14T10:41:58;101288.00;;;24.60
34807;BMP180;18310;55.586;12.286;2022-10-14T10:45:14;101277.00;;;24.60
34807;BMP180;18310;55.586;12.286;2022-10-14T10:48:26;101273.00;;;24.60
34807;BMP180;18310;55.586;12.286;2022-10-14T10:51:44;101280.00;;;24.60
34807;BMP180;18310;55.586;12.286;2022-10-14T10:54:58;101274.00;;;24.70
34807;BMP180;18310;55.586;12.286;2022-10-14T10:58:18;101277.00;;;24.70
34807;BMP180;18310;55.586;12.286;2022-10-14T11:01:39;101275.00;;;24.90
34807;BMP180;18310;55.586;12.286;2022-10-14T11:04:53;101272.00;;;24.90
34807;BMP180;18310;55.586;12.286;2022-10-14T11:08:19;101274.00;;;25.00
34807;BMP180;18310;55.586;12.286;2022-10-14T11:11:56;101274.00;;;25.10
34807;BMP180;18310;55.586;12.286;2022-10-14T11:15:39;101275.00;;;25.30
34807;BMP180;18310;55.586;12.286;2022-10-14T11:18:50;101266.00;;;25.40
34807;BMP180;18310;55.586;12.286;2022-10-14T11:22:11;101262.00;;;25.50
34807;BMP180;18310;55.586;12.286;2022-10-14T11:25:28;101268.00;;;25.60
34807;BMP180;18310;55.586;12.286;2022-10-14T11:28:45;101266.00;;;25.70
34807;BMP180;18310;55.586;12.286;2022-10-14T11:32:02;101269.00;;;25.80
34807;BMP180;18310;55.586;12.286;2022-10-14T11:35:23;101267.00;;;25.80
34807;BMP180;18310;55.586;12.286;2022-10-14T11:38:50;101268.00;;;25.90
34807;BMP180;18310;55.586;12.286;2022-10-14T11:42:10;101265.00;;;26.00
34807;BMP180;18310;55.586;12.286;2022-10-14T11:45:44;101266.00;;;26.00
34807;BMP180;18310;55.586;12.286;2022-10-14T11:48:56;101262.00;;;26.10
34807;BMP180;18310;55.586;12.286;2022-10-14T11:52:06;101265.00;;;26.10
34807;BMP180;18310;55.586;12.286;2022-10-14T11:55:16;101263.00;;;26.10
34807;BMP180;18310;55.586;12.286;2022-10-14T11:58:25;101255.00;;;26.00
34807;BMP180;18310;55.586;12.286;2022-10-14T12:01:33;101264.00;;;26.00
34807;BMP180;18310;55.586;12.286;2022-10-14T12:04:52;101258.00;;;26.00
34807;BMP180;18310;55.586;12.286;2022-10-14T12:08:12;101253.00;;;26.00
34807;BMP180;18310;55.586;12.286;2022-10-14T12:11:29;101248.00;;;26.00
34807;BMP180;18310;55.586;12.286;2022-10-14T12:14:42;101246.00;;;26.00
34807;BMP180;18310;55.586;12.286;2022-10-14T12:17:54;101250.00;;;26.10
34807;BMP180;18310;55.586;12.286;2022-10-14T12:21:11;101248.00;;;26.10
34807;BMP180;18310;55.586;12.286;2022-10-14T12:24:20;101250.00;;;26.10
34807;BMP180;18310;55.586;12.286;2022-10-14T12:27:28;101244.00;;;26.20
34807;BMP180;18310;55.586;12.286;2022-10-14T12:30:36;101244.00;;;26.20
34807;BMP180;18310;55.586;12.286;2022-10-14T12:34:22;101238.00;;;26.10
34807;BMP180;18310;55.586;12.286;2022-10-14T12:37:50;101233.00;;;26.10
34807;BMP180;18310;55.586;12.286;2022-10-14T12:41:38;101242.00;;;26.00
34807;BMP180;18310;55.586;12.286;2022-10-14T12:44:47;101233.00;;;26.10
34807;BMP180;18310;55.586;12.286;2022-10-14T12:48:06;101231.00;;;26.10
34807;BMP180;18310;55.586;12.286;2022-10-14T12:51:17;101220.00;;;26.10
34807;BMP180;18310;55.586;12.286;2022-10-14T12:54:23;101225.00;;;26.10
34807;BMP180;18310;55.586;12.286;2022-10-14T12:57:32;101225.00;;;26.20
34807;BMP180;18310;55.586;12.286;2022-10-14T13:00:41;101228.00;;;26.20
34807;BMP180;18310;55.586;12.286;2022-10-14T13:03:53;101223.00;;;26.10
34807;BMP180;18310;55.586;12.286;2022-10-14T13:07:38;101210.00;;;26.00
34807;BMP180;18310;55.586;12.286;2022-10-14T13:10:46;101216.00;;;25.90
34807;BMP180;18310;55.586;12.286;2022-10-14T13:14:00;101215.00;;;25.90
34807;BMP180;18310;55.586;12.286;2022-10-14T13:17:29;101215.00;;;25.80
34807;BMP180;18310;55.586;12.286;2022-10-14T13:20:52;101204.00;;;25.70
34807;BMP180;18310;55.586;12.286;2022-10-14T13:24:00;101203.00;;;25.60
34807;BMP180;18310;55.586;12.286;2022-10-14T13:27:12;101200.00;;;25.60
34807;BMP180;18310;55.586;12.286;2022-10-14T13:30:32;101203.00;;;25.50
34807;BMP180;18310;55.586;12.286;2022-10-14T13:33:47;101204.00;;;25.50
34807;BMP180;18310;55.586;12.286;2022-10-14T13:37:18;101200.00;;;25.40
34807;BMP180;18310;55.586;12.286;2022-10-14T13:40:28;101200.00;;;25.40
34807;BMP180;18310;55.586;12.286;2022-10-14T13:43:39;101191.00;;;25.40
34807;BMP180;18310;55.586;12.286;2022-10-14T13:46:47;101182.00;;;25.40
34807;BMP180;18310;55.586;12.286;2022-10-14T13:49:52;101192.00;;;25.40
34807;BMP180;18310;55.586;12.286;2022-10-14T13:53:02;101196.00;;;25.30
34807;BMP180;18310;55.586;12.286;2022-10-14T13:56:21;101191.00;;;25.30
34807;BMP180;18310;55.586;12.286;2022-10-14T13:59:27;101190.00;;;25.20
34807;BMP180;18310;55.586;12.286;2022-10-14T14:02:47;101191.00;;;25.20
34807;BMP180;18310;55.586;12.286;2022-10-14T14:06:01;101179.00;;;25.10
34807;BMP180;18310;55.586;12.286;2022-10-14T14:09:06;101173.00;;;25.00
34807;BMP180;18310;55.586;12.286;2022-10-14T14:12:12;101166.00;;;25.00
34807;BMP180;18310;55.586;12.286;2022-10-14T14:15:23;101166.00;;;24.90
34807;BMP180;18310;55.586;12.286;2022-10-14T14:18:34;101169.00;;;24.80
34807;BMP180;18310;55.586;12.286;2022-10-14T14:22:17;101176.00;;;24.80
34807;BMP180;18310;55.586;12.286;2022-10-14T14:25:26;101163.00;;;24.70
34807;BMP180;18310;55.586;12.286;2022-10-14T14:28:37;101162.00;;;24.60
34807;BMP180;18310;55.586;12.286;2022-10-14T14:31:44;101157.00;;;24.60
34807;BMP180;18310;55.586;12.286;2022-10-14T14:35:12;101160.00;;;24.50
34807;BMP180;18310;55.586;12.286;2022-10-14T14:38:31;101165.00;;;24.50
34807;BMP180;18310;55.586;12.286;2022-10-14T14:41:35;101163.00;;;24.50
34807;BMP180;18310;55.586;12.286;2022-10-14T14:44:39;101160.00;;;24.50
34807;BMP180;18310;55.586;12.286;2022-10-14T14:47:45;101155.00;;;24.50
34807;BMP180;18310;55.586;12.286;2022-10-14T14:50:50;101151.00;;;24.40
34807;BMP180;18310;55.586;12.286;2022-10-14T14:53:55;101149.00;;;24.40
34807;BMP180;18310;55.586;12.286;2022-10-14T14:57:04;101142.00;;;24.30
34807;BMP180;18310;55.586;12.286;2022-10-14T15:00:18;101140.00;;;24.30
34807;BMP180;18310;55.586;12.286;2022-10-14T15:03:28;101137.00;;;24.30
34807;BMP180;18310;55.586;12.286;2022-10-14T15:06:33;101133.00;;;24.20
34807;BMP180;18310;55.586;12.286;2022-10-14T15:09:43;101127.00;;;24.20
34807;BMP180;18310;55.586;12.286;2022-10-14T15:12:53;101133.00;;;24.10
34807;BMP180;18310;55.586;12.286;2022-10-14T15:15:57;101125.00;;;24.10
34807;BMP180;18310;55.586;12.286;2022-10-14T15:19:29;101124.00;;;24.00
34807;BMP180;18310;55.586;12.286;2022-10-14T15:22:40;101124.00;;;24.00
34807;BMP180;18310;55.586;12.286;2022-10-14T15:25:56;101122.00;;;23.90
34807;BMP180;18310;55.586;12.286;2022-10-14T15:29:24;101108.00;;;23.90
34807;BMP180;18310;55.586;12.286;2022-10-14T15:32:27;101118.00;;;23.80
34807;BMP180;18310;55.586;12.286;2022-10-14T15:35:34;101113.00;;;23.80
34807;BMP180;18310;55.586;12.286;2022-10-14T15:38:37;101114.00;;;23.70
34807;BMP180;18310;55.586;12.286;2022-10-14T15:41:42;101117.00;;;23.70
34807;BMP180;18310;55.586;12.286;2022-10-14T15:44:46;101105.00;;;23.70
34807;BMP180;18310;55.586;12.286;2022-10-14T15:47:58;101100.00;;;23.60
34807;BMP180;18310;55.586;12.286;2022-10-14T15:51:04;101093.00;;;23.50
34807;BMP180;18310;55.586;12.286;2022-10-14T15:54:10;101089.00;;;23.40
34807;BMP180;18310;55.586;12.286;2022-10-14T15:57:16;101090.00;;;23.40
34807;BMP180;18310;55.586;12.286;2022-10-14T16:00:23;101083.00;;;23.40
34807;BMP180;18310;55.586;12.286;2022-10-14T16:03:27;101078.00;;;23.30
34807;BMP180;18310;55.586;12.286;2022-10-14T16:06:39;101075.00;;;23.20
34807;BMP180;18310;55.586;12.286;2022-10-14T16:09:42;101071.00;;;23.20
34807;BMP180;18310;55.586;12.286;2022-10-14T16:12:48;101074.00;;;23.20
34807;BMP180;18310;55.586;12.286;2022-10-14T16:15:56;101066.00;;;23.10
34807;BMP180;18310;55.586;12.286;2022-10-14T16:19:03;101067.00;;;23.10
34807;BMP180;18310;55.586;12.286;2022-10-14T16:22:06;101076.00;;;23.00
34807;BMP180;18310;55.586;12.286;2022-10-14T16:25:19;101076.00;;;23.00
34807;BMP180;18310;55.586;12.286;2022-10-14T16:28:25;101076.00;;;22.90
34807;BMP180;18310;55.586;12.286;2022-10-14T16:31:28;101070.00;;;22.90
34807;BMP180;18310;55.586;12.286;2022-10-14T16:34:32;101069.00;;;22.80
34807;BMP180;18310;55.586;12.286;2022-10-14T16:37:35;101062.00;;;22.80
34807;BMP180;18310;55.586;12.286;2022-10-14T16:40:39;101064.00;;;22.80
34807;BMP180;18310;55.586;12.286;2022-10-14T16:43:45;101066.00;;;22.70
34807;BMP180;18310;55.586;12.286;2022-10-14T16:46:49;101076.00;;;22.70
34807;BMP180;18310;55.586;12.286;2022-10-14T16:50:11;101073.00;;;22.70
34807;BMP180;18310;55.586;12.286;2022-10-14T16:53:14;101072.00;;;22.70
34807;BMP180;18310;55.586;12.286;2022-10-14T16:56:40;101072.00;;;22.70
34807;BMP180;18310;55.586;12.286;2022-10-14T17:00:00;101067.00;;;22.70
34807;BMP180;18310;55.586;12.286;2022-10-14T17:03:04;101064.00;;;22.80
34807;BMP180;18310;55.586;12.286;2022-10-14T17:06:09;101065.00;;;22.80
34807;BMP180;18310;55.586;12.286;2022-10-14T17:09:13;101069.00;;;22.80
34807;BMP180;18310;55.586;12.286;2022-10-14T17:12:16;101061.00;;;22.80
34807;BMP180;18310;55.586;12.286;2022-10-14T17:15:22;101062.00;;;22.80
34807;BMP180;18310;55.586;12.286;2022-10-14T17:18:26;101064.00;;;22.80
34807;BMP180;18310;55.586;12.286;2022-10-14T17:21:36;101065.00;;;22.80
34807;BMP180;18310;55.586;12.286;2022-10-14T17:24:40;101070.00;;;22.80
34807;BMP180;18310;55.586;12.286;2022-10-14T17:27:44;101071.00;;;22.90
34807;BMP180;18310;55.586;12.286;2022-10-14T17:30:50;101065.00;;;22.90
34807;BMP180;18310;55.586;12.286;2022-10-14T17:33:53;101063.00;;;22.80
34807;BMP180;18310;55.586;12.286;2022-10-14T17:36:56;101061.00;;;22.80
34807;BMP180;18310;55.586;12.286;2022-10-14T17:40:00;101058.00;;;22.80